昆明 の空港の天気 - METARとTAF

昆明巫家餽国際空港 ( ZPPP / KMG ) - 中国 雲南省昆明市
飛行場実況気象(Metar)
観測時間04/22 00:00 CST (04/21 16:00 UTC)
風向・風速南南西 3m/s
視程10km以上
天気現象
なし
気温17℃
湿度48%
気圧1018hPa
METARZPPP 211600Z 21003MPS CAVOK 17/06 Q1018 NOSIG
過去の天気等 Google飛行場航空写真 Wunderground天気予報

過去48時間のMETAR

飛行場予報(TAF)
発表時間: 4/21 15:03 CST (4/21 07:03 UTC)
予報対象時間: 21日20時 CST ~ 22日20時 CST
風向・風速南西 6m/s
視程10km以上
全天の4割程度の雲 雲底高度 790m
TAF ZPPP 210703Z 2112/2212 23006MPS 9999 SCT026 TX29/2208Z TN15/2123Z